createdAt,value
2024-01-17T00:00:21.248Z,9.40
2024-01-17T00:05:37.964Z,10.50
2024-01-17T00:08:06.567Z,11.00
2024-01-17T00:10:34.675Z,8.70
2024-01-17T00:13:03.989Z,6.00
2024-01-17T00:15:32.125Z,19.60
2024-01-17T00:18:00.961Z,29.50
2024-01-17T00:20:29.448Z,45.30
2024-01-17T00:22:57.765Z,57.10
2024-01-17T00:25:26.883Z,95.60
2024-01-17T00:27:55.264Z,64.70
2024-01-17T00:30:24.491Z,87.80
2024-01-17T00:32:52.811Z,78.00
2024-01-17T00:35:21.198Z,68.70
2024-01-17T00:37:49.579Z,72.50
2024-01-17T00:40:17.856Z,65.50
2024-01-17T00:42:46.147Z,63.30
2024-01-17T00:45:14.738Z,62.90
2024-01-17T00:47:43.830Z,53.70
2024-01-17T00:50:12.277Z,47.60
2024-01-17T00:52:40.577Z,64.90
2024-01-17T00:55:09.604Z,44.50
2024-01-17T00:57:37.787Z,41.90
2024-01-17T01:00:08.872Z,42.80
2024-01-17T01:02:37.462Z,68.80
2024-01-17T01:05:06.181Z,78.90
2024-01-17T01:07:34.283Z,76.20
2024-01-17T01:10:02.741Z,69.20
2024-01-17T01:12:30.909Z,70.50
2024-01-17T01:14:59.070Z,68.60
2024-01-17T01:17:27.405Z,64.20
2024-01-17T01:19:56.701Z,66.20
2024-01-17T01:22:25.042Z,55.60
2024-01-17T01:24:53.283Z,54.10
2024-01-17T01:27:21.377Z,45.60
2024-01-17T01:29:49.564Z,44.90
2024-01-17T01:32:17.827Z,42.70
2024-01-17T01:34:46.075Z,41.60
2024-01-17T01:37:14.523Z,40.70
2024-01-17T01:39:42.805Z,25.00
2024-01-17T01:42:11.087Z,30.90
2024-01-17T01:44:39.440Z,25.00
2024-01-17T01:47:09.410Z,38.80
2024-01-17T01:49:38.811Z,50.30
2024-01-17T01:52:09.329Z,51.80
2024-01-17T01:54:38.908Z,49.90
2024-01-17T01:57:08.747Z,39.20
2024-01-17T01:59:37.436Z,52.40
2024-01-17T02:02:07.280Z,33.30
2024-01-17T02:04:36.101Z,28.30
2024-01-17T02:07:04.789Z,21.20
2024-01-17T02:09:35.141Z,35.20
2024-01-17T02:12:05.291Z,19.30
2024-01-17T02:14:34.461Z,11.80
2024-01-17T02:17:02.736Z,19.30
2024-01-17T02:19:31.232Z,18.80
2024-01-17T02:21:59.409Z,16.40
2024-01-17T02:24:30.245Z,13.30
2024-01-17T02:27:02.573Z,15.20
2024-01-17T02:29:31.368Z,16.60
2024-01-17T02:32:00.428Z,10.50
2024-01-17T02:34:29.149Z,13.60
2024-01-17T02:36:57.501Z,15.50
2024-01-17T02:39:26.183Z,10.00
2024-01-17T02:41:54.490Z,6.30
2024-01-17T02:44:22.670Z,4.70
2024-01-17T02:46:50.858Z,5.70
2024-01-17T02:49:21.254Z,6.60
2024-01-17T02:51:49.796Z,9.80
2024-01-17T02:54:17.933Z,22.30
2024-01-17T02:56:46.351Z,10.70
2024-01-17T02:59:15.873Z,8.90
2024-01-17T03:01:44.402Z,7.30
2024-01-17T03:04:12.967Z,3.40
2024-01-17T03:06:41.171Z,9.10
2024-01-17T03:09:09.552Z,10.00
2024-01-17T03:11:38.584Z,4.80
2024-01-17T03:14:06.725Z,11.40
2024-01-17T03:16:37.143Z,6.90
2024-01-17T03:19:05.750Z,6.70
2024-01-17T03:21:34.313Z,11.80
2024-01-17T03:24:02.792Z,13.40
2024-01-17T03:26:32.997Z,7.70
2024-01-17T03:29:01.097Z,5.20
2024-01-17T03:31:29.351Z,11.00
2024-01-17T03:33:57.694Z,12.20
2024-01-17T03:36:26.059Z,20.20
2024-01-17T03:38:56.003Z,12.70
2024-01-17T03:41:24.173Z,10.50
2024-01-17T03:43:53.083Z,20.10
2024-01-17T03:46:21.458Z,9.30
2024-01-17T03:48:49.867Z,7.50
2024-01-17T03:51:18.132Z,12.80
2024-01-17T03:53:48.114Z,7.10
2024-01-17T03:56:16.618Z,13.10
2024-01-17T03:58:45.063Z,16.60
2024-01-17T04:01:14.064Z,16.20
2024-01-17T04:03:42.475Z,10.80
2024-01-17T04:06:10.879Z,8.00
2024-01-17T04:08:40.068Z,13.70
2024-01-17T04:11:08.387Z,15.50
2024-01-17T04:13:36.585Z,9.80
2024-01-17T04:16:05.225Z,19.00
2024-01-17T04:21:03.661Z,17.20
2024-01-17T04:23:32.088Z,29.70
2024-01-17T04:26:00.409Z,39.80
2024-01-17T04:28:29.028Z,39.00
2024-01-17T04:30:57.186Z,28.60
2024-01-17T04:33:25.459Z,28.70
2024-01-17T04:35:53.831Z,16.10
2024-01-17T04:38:22.968Z,17.50
2024-01-17T04:40:51.192Z,18.90
2024-01-17T04:43:19.352Z,33.00
2024-01-17T04:45:50.010Z,25.60
2024-01-17T04:48:18.913Z,27.80
2024-01-17T04:50:49.796Z,21.70
2024-01-17T04:53:18.798Z,22.40
2024-01-17T04:55:46.908Z,27.20
2024-01-17T04:58:15.079Z,18.40
2024-01-17T05:00:46.789Z,15.70
2024-01-17T05:03:16.257Z,31.70
2024-01-17T05:05:47.467Z,29.20
2024-01-17T05:08:16.016Z,43.20
2024-01-17T05:10:47.834Z,50.10
2024-01-17T05:13:16.022Z,53.60
2024-01-17T05:15:44.496Z,71.90
2024-01-17T05:18:12.885Z,118.20
2024-01-17T05:20:41.439Z,58.30
2024-01-17T05:23:09.834Z,55.90
2024-01-17T05:25:38.027Z,52.70
2024-01-17T05:28:07.898Z,51.30
2024-01-17T05:30:36.718Z,52.40
2024-01-17T05:33:05.844Z,50.20
2024-01-17T05:35:34.663Z,50.50
2024-01-17T05:38:03.140Z,68.90
2024-01-17T05:40:31.420Z,59.50
2024-01-17T05:45:30.425Z,33.10
2024-01-17T05:47:59.461Z,36.80
2024-01-17T05:50:27.989Z,30.40
2024-01-17T05:52:56.205Z,42.60
2024-01-17T05:55:24.565Z,81.20
2024-01-17T05:57:54.747Z,83.60
2024-01-17T06:00:23.252Z,59.00
2024-01-17T06:02:51.677Z,53.70
2024-01-17T06:05:20.587Z,24.60
2024-01-17T06:07:48.839Z,73.40
2024-01-17T06:10:17.141Z,87.30
2024-01-17T06:12:45.400Z,118.70
2024-01-17T06:15:14.314Z,82.00
2024-01-17T06:17:43.221Z,96.40
2024-01-17T06:20:13.007Z,111.70
2024-01-17T06:22:41.584Z,110.30
2024-01-17T06:25:09.936Z,151.00
2024-01-17T06:27:38.167Z,150.50
2024-01-17T06:30:08.010Z,132.10
2024-01-17T06:32:36.909Z,123.60
2024-01-17T06:35:05.415Z,130.20
2024-01-17T06:37:33.769Z,101.80
2024-01-17T06:40:02.082Z,97.20
2024-01-17T06:42:30.501Z,101.40
2024-01-17T06:44:58.627Z,84.90
2024-01-17T06:47:27.180Z,81.90
2024-01-17T06:52:23.844Z,109.50
2024-01-17T06:54:52.122Z,110.70
2024-01-17T06:57:20.792Z,131.70
2024-01-17T06:59:50.025Z,82.80
2024-01-17T07:02:18.360Z,136.80
2024-01-17T07:04:46.584Z,128.40
2024-01-17T07:07:15.175Z,198.20
2024-01-17T07:09:44.212Z,196.50
2024-01-17T07:12:12.603Z,175.80
2024-01-17T07:14:40.907Z,224.30
2024-01-17T07:17:09.803Z,180.20
2024-01-17T07:19:38.602Z,231.40
2024-01-17T07:24:36.429Z,209.40
2024-01-17T07:27:04.970Z,163.00
2024-01-17T07:29:33.352Z,103.10
2024-01-17T07:32:01.861Z,145.10
2024-01-17T07:34:30.293Z,148.10
2024-01-17T07:36:58.751Z,70.30
2024-01-17T07:39:27.070Z,71.80
2024-01-17T07:41:57.307Z,28.70
2024-01-17T07:44:30.412Z,44.80
2024-01-17T07:46:58.771Z,42.80
2024-01-17T07:49:27.213Z,29.80
2024-01-17T07:51:55.853Z,20.60
2024-01-17T07:54:25.212Z,11.30
2024-01-17T07:56:53.543Z,18.90
2024-01-17T07:59:22.614Z,12.30
2024-01-17T08:01:51.256Z,14.80
2024-01-17T08:04:19.882Z,14.20
2024-01-17T08:06:49.073Z,11.70
2024-01-17T08:09:23.725Z,17.50
2024-01-17T08:11:53.340Z,28.80
2024-01-17T08:14:22.367Z,22.20
2024-01-17T08:16:54.018Z,22.60
2024-01-17T08:19:22.276Z,27.80
2024-01-17T08:21:52.618Z,40.80
2024-01-17T08:24:21.823Z,92.70
2024-01-17T08:26:50.349Z,60.40
2024-01-17T08:29:19.572Z,12.80
2024-01-17T08:31:48.030Z,19.00
2024-01-17T08:34:16.712Z,16.80
2024-01-17T08:36:45.335Z,26.30
2024-01-17T08:39:13.745Z,24.60
2024-01-17T08:41:47.490Z,83.00
2024-01-17T08:44:16.586Z,13.90
2024-01-17T08:46:46.811Z,17.50
2024-01-17T08:49:18.705Z,9.80
2024-01-17T08:51:47.964Z,12.20
2024-01-17T08:54:16.148Z,24.20
2024-01-17T08:56:44.480Z,39.60
2024-01-17T08:59:13.467Z,25.40
2024-01-17T09:01:41.788Z,64.30
2024-01-17T09:04:10.465Z,18.00
2024-01-17T09:06:39.202Z,20.20
2024-01-17T09:11:41.457Z,17.00
2024-01-17T09:14:11.893Z,25.30
2024-01-17T09:16:40.476Z,16.20
2024-01-17T09:19:09.073Z,14.00
2024-01-17T09:21:37.456Z,31.90
2024-01-17T09:24:06.132Z,14.80
2024-01-17T09:31:32.687Z,38.40
2024-01-17T09:34:01.070Z,43.20
2024-01-17T09:36:29.393Z,46.10
2024-01-17T09:38:57.617Z,75.50
2024-01-17T09:41:26.248Z,53.30
2024-01-17T09:46:24.111Z,128.90
2024-01-17T09:48:52.704Z,32.70
2024-01-17T09:53:54.833Z,35.30
2024-01-17T09:56:26.260Z,21.60
2024-01-17T09:58:56.871Z,41.90
2024-01-17T10:01:28.735Z,19.00
2024-01-17T10:04:01.332Z,19.00
2024-01-17T10:06:31.249Z,17.40
2024-01-17T10:09:01.191Z,15.80
2024-01-17T10:11:29.736Z,15.10
2024-01-17T10:13:58.041Z,13.20
2024-01-17T10:16:27.347Z,17.40
2024-01-17T10:18:56.047Z,33.20
2024-01-17T10:23:54.393Z,25.20
2024-01-17T10:26:23.647Z,29.80
2024-01-17T10:28:52.986Z,52.50
2024-01-17T10:31:22.510Z,33.90
2024-01-17T10:33:53.123Z,50.70
2024-01-17T10:36:23.079Z,34.30
2024-01-17T10:38:51.959Z,38.80
2024-01-17T10:43:56.169Z,65.40
2024-01-17T10:46:25.544Z,28.90
2024-01-17T10:48:54.553Z,29.60
2024-01-17T10:51:24.977Z,34.20
2024-01-17T10:53:59.263Z,35.20
2024-01-17T10:56:31.099Z,33.10
2024-01-17T10:59:00.736Z,37.60
2024-01-17T11:01:36.707Z,34.60
2024-01-17T11:04:19.015Z,50.40
2024-01-17T11:06:49.926Z,33.10
2024-01-17T11:09:20.033Z,27.30
2024-01-17T11:11:50.618Z,31.60
2024-01-17T11:14:21.677Z,43.60
2024-01-17T11:16:51.051Z,55.30
2024-01-17T11:19:20.390Z,46.50
2024-01-17T11:21:49.569Z,114.10
2024-01-17T11:24:34.671Z,76.00
2024-01-17T11:27:32.495Z,168.60
2024-01-17T11:30:06.703Z,61.80
2024-01-17T11:33:15.096Z,64.00
2024-01-17T11:38:25.515Z,38.50
2024-01-17T11:40:54.836Z,19.40
2024-01-17T11:43:23.841Z,26.40
2024-01-17T11:45:52.296Z,18.30
2024-01-17T11:51:01.112Z,30.90
2024-01-17T11:53:30.309Z,36.70
2024-01-17T11:56:02.446Z,162.40
2024-01-17T11:58:40.693Z,322.90
2024-01-17T12:01:19.413Z,134.00
2024-01-17T12:03:47.795Z,63.20
2024-01-17T12:06:17.733Z,75.90
2024-01-17T12:08:46.061Z,49.60
2024-01-17T12:11:14.764Z,116.70
2024-01-17T12:13:43.369Z,32.70
2024-01-17T12:16:15.104Z,70.20
2024-01-17T12:18:44.457Z,62.30
2024-01-17T12:21:13.351Z,30.10
2024-01-17T12:26:10.798Z,32.40
2024-01-17T12:28:40.304Z,40.60
2024-01-17T12:31:09.448Z,39.70
2024-01-17T12:33:39.603Z,15.80
2024-01-17T12:36:08.244Z,19.60
2024-01-17T12:38:42.587Z,25.00
2024-01-17T12:41:11.752Z,19.50
2024-01-17T12:43:40.211Z,24.60
2024-01-17T12:46:09.059Z,22.80
2024-01-17T12:48:37.802Z,27.90
2024-01-17T12:51:08.704Z,38.50
2024-01-17T12:53:41.533Z,31.00
2024-01-17T12:56:13.027Z,54.30
2024-01-17T12:58:41.557Z,26.00
2024-01-17T13:01:10.485Z,21.70
2024-01-17T13:03:40.478Z,20.70
2024-01-17T13:06:08.915Z,29.90
2024-01-17T13:08:37.315Z,19.90
2024-01-17T13:11:19.065Z,38.00
2024-01-17T13:13:48.523Z,38.20
2024-01-17T13:16:17.288Z,33.20
2024-01-17T13:18:58.685Z,25.60
2024-01-17T13:21:27.389Z,23.90
2024-01-17T13:23:55.845Z,21.60
2024-01-17T13:26:37.266Z,19.50
2024-01-17T13:29:06.670Z,15.40
2024-01-17T13:31:37.282Z,15.10
2024-01-17T13:34:06.701Z,9.20
2024-01-17T13:36:35.706Z,19.80
2024-01-17T13:39:06.596Z,11.60
2024-01-17T13:41:35.487Z,13.00
2024-01-17T13:44:03.989Z,11.20
2024-01-17T13:46:33.090Z,13.60
2024-01-17T13:49:01.794Z,17.20
2024-01-17T13:51:32.236Z,27.00
2024-01-17T13:54:06.047Z,23.00
2024-01-17T13:56:35.422Z,13.90
2024-01-17T13:59:04.058Z,19.20
2024-01-17T14:01:32.650Z,22.50
2024-01-17T14:04:00.922Z,20.00
2024-01-17T14:06:29.667Z,150.00
2024-01-17T14:11:26.154Z,20.20
2024-01-17T14:13:54.361Z,18.00
2024-01-17T14:16:23.787Z,28.30
2024-01-17T14:18:52.154Z,19.10
2024-01-17T14:21:20.347Z,19.60
2024-01-17T14:23:48.866Z,15.10
2024-01-17T14:26:19.731Z,14.50
2024-01-17T14:28:47.965Z,15.20
2024-01-17T14:31:16.120Z,33.50
2024-01-17T14:33:47.155Z,38.40
2024-01-17T14:36:15.902Z,37.00
2024-01-17T14:38:44.076Z,28.00
2024-01-17T14:41:13.162Z,32.20
2024-01-17T14:43:41.744Z,40.30
2024-01-17T14:46:09.996Z,28.40
2024-01-17T14:48:38.273Z,25.60
2024-01-17T14:51:07.363Z,31.90
2024-01-17T14:53:35.637Z,29.80
2024-01-17T14:56:03.909Z,24.70
2024-01-17T14:58:32.541Z,18.70
2024-01-17T15:01:01.292Z,35.20
2024-01-17T15:05:58.347Z,26.40
2024-01-17T15:10:55.702Z,24.40
2024-01-17T15:13:24.923Z,27.40
2024-01-17T15:15:53.183Z,19.60
2024-01-17T15:18:21.747Z,20.00
2024-01-17T15:20:50.085Z,59.80
2024-01-17T15:23:18.465Z,45.00
2024-01-17T15:25:46.617Z,50.50
2024-01-17T15:28:16.151Z,20.10
2024-01-17T15:30:46.253Z,27.70
2024-01-17T15:33:15.065Z,31.40
2024-01-17T15:38:11.987Z,56.10
2024-01-17T15:40:46.102Z,39.00
2024-01-17T15:43:14.573Z,39.70
2024-01-17T15:45:42.936Z,34.90
2024-01-17T15:48:12.705Z,42.00
2024-01-17T15:50:41.021Z,50.20
2024-01-17T15:53:11.739Z,44.40
2024-01-17T15:55:44.510Z,33.20
2024-01-17T15:58:15.519Z,78.30
2024-01-17T16:00:44.476Z,28.00
2024-01-17T16:03:16.870Z,59.50
2024-01-17T16:05:45.160Z,141.80
2024-01-17T16:08:13.521Z,44.60
2024-01-17T16:10:42.651Z,31.90
2024-01-17T16:13:13.181Z,58.70
2024-01-17T16:15:46.635Z,80.50
2024-01-17T16:18:15.084Z,28.70
2024-01-17T16:20:43.894Z,55.80
2024-01-17T16:25:40.255Z,30.60
2024-01-17T16:28:08.522Z,31.20
2024-01-17T16:30:36.870Z,23.10
2024-01-17T16:33:05.106Z,143.40
2024-01-17T16:35:33.366Z,85.90
2024-01-17T16:38:01.502Z,32.90
2024-01-17T16:40:30.957Z,32.10
2024-01-17T16:43:00.038Z,34.50
2024-01-17T16:45:28.796Z,48.80
2024-01-17T16:47:57.089Z,58.70
2024-01-17T16:50:26.092Z,91.60
2024-01-17T16:52:55.435Z,61.20
2024-01-17T16:55:23.701Z,51.10
2024-01-17T16:57:52.451Z,61.60
2024-01-17T17:02:48.850Z,31.40
2024-01-17T17:05:17.528Z,30.60
2024-01-17T17:07:46.612Z,33.00
2024-01-17T17:10:15.695Z,33.20
2024-01-17T17:12:43.832Z,34.90
2024-01-17T17:15:12.566Z,42.50
2024-01-17T17:17:41.238Z,54.80
2024-01-17T17:20:11.666Z,56.70
2024-01-17T17:22:39.834Z,103.90
2024-01-17T17:25:09.072Z,47.50
2024-01-17T17:27:37.397Z,24.30
2024-01-17T17:30:07.239Z,28.60
2024-01-17T17:32:35.737Z,25.10
2024-01-17T17:35:05.299Z,29.90
2024-01-17T17:37:33.550Z,33.60
2024-01-17T17:40:03.725Z,39.20
2024-01-17T17:42:32.259Z,32.60
2024-01-17T17:45:00.631Z,44.10
2024-01-17T17:47:29.433Z,47.20
2024-01-17T17:49:57.901Z,46.90
2024-01-17T17:52:26.101Z,43.40
2024-01-17T17:55:00.696Z,56.50
2024-01-17T17:57:30.510Z,168.80
2024-01-17T17:59:58.908Z,116.60
2024-01-17T18:02:28.368Z,40.30
2024-01-17T18:04:57.039Z,27.90
2024-01-17T18:07:25.345Z,29.00
2024-01-17T18:09:53.744Z,35.40
2024-01-17T18:12:21.939Z,29.70
2024-01-17T18:14:50.270Z,35.50
2024-01-17T18:17:18.393Z,27.80
2024-01-17T18:19:46.627Z,17.40
2024-01-17T18:22:14.814Z,41.50
2024-01-17T18:24:43.662Z,30.10
2024-01-17T18:27:12.011Z,20.00
2024-01-17T18:29:40.446Z,26.50
2024-01-17T18:32:08.606Z,26.60
2024-01-17T18:34:36.858Z,28.30
2024-01-17T18:37:05.833Z,26.00
2024-01-17T18:42:03.986Z,17.30
2024-01-17T18:44:32.241Z,15.60
2024-01-17T18:47:00.802Z,16.80
2024-01-17T18:49:31.420Z,15.20
2024-01-17T18:52:01.693Z,12.80
2024-01-17T18:54:30.450Z,12.70
2024-01-17T18:59:27.251Z,181.60
2024-01-17T19:01:55.457Z,249.10
2024-01-17T19:04:23.846Z,194.30
2024-01-17T19:06:52.297Z,103.50
2024-01-17T19:09:20.791Z,24.50
2024-01-17T19:11:49.071Z,22.70
2024-01-17T19:14:18.366Z,26.90
2024-01-17T19:16:47.689Z,27.10
2024-01-17T19:19:15.884Z,46.50
2024-01-17T19:21:44.087Z,29.80
2024-01-17T19:24:14.825Z,109.90
2024-01-17T19:26:46.922Z,54.50
2024-01-17T19:29:15.117Z,29.90
2024-01-17T19:31:44.044Z,37.80
2024-01-17T19:36:40.563Z,22.90
2024-01-17T19:39:09.096Z,59.40
2024-01-17T19:41:37.327Z,22.70
2024-01-17T19:44:05.660Z,62.90
2024-01-17T19:46:33.815Z,40.50
2024-01-17T19:49:02.422Z,28.70
2024-01-17T19:53:59.305Z,30.60
2024-01-17T19:56:28.964Z,14.30
2024-01-17T19:58:57.415Z,19.90
2024-01-17T20:01:25.901Z,25.20
2024-01-17T20:03:54.273Z,30.80
2024-01-17T20:06:23.422Z,24.40
2024-01-17T20:08:52.016Z,18.90
2024-01-17T20:13:50.014Z,19.40
2024-01-17T20:16:18.932Z,21.80
2024-01-17T20:21:25.226Z,17.00
2024-01-17T20:23:53.712Z,34.00
2024-01-17T20:26:22.330Z,37.50
2024-01-17T20:28:50.601Z,27.90
2024-01-17T20:31:19.345Z,31.30
2024-01-17T20:33:47.752Z,27.30
2024-01-17T20:36:18.384Z,30.90
2024-01-17T20:38:47.503Z,36.80
2024-01-17T20:43:46.062Z,41.00
2024-01-17T20:46:16.525Z,34.20
2024-01-17T20:48:45.286Z,42.10
2024-01-17T20:53:50.330Z,73.80
2024-01-17T20:56:18.716Z,53.10
2024-01-17T20:58:46.821Z,54.00
2024-01-17T21:01:14.997Z,62.20
2024-01-17T21:03:43.496Z,59.10
2024-01-17T21:06:11.800Z,58.10
2024-01-17T21:08:39.939Z,57.50
2024-01-17T21:11:08.576Z,54.10
2024-01-17T21:13:36.771Z,62.40
2024-01-17T21:16:09.584Z,57.50
2024-01-17T21:18:37.860Z,61.60
2024-01-17T21:21:06.253Z,66.30
2024-01-17T21:23:35.043Z,62.70
2024-01-17T21:26:03.199Z,61.20
2024-01-17T21:28:31.407Z,46.70
2024-01-17T21:30:59.598Z,46.30
2024-01-17T21:33:27.953Z,62.60
2024-01-17T21:35:56.359Z,52.70
2024-01-17T21:38:24.632Z,38.20
2024-01-17T21:40:52.741Z,40.50
2024-01-17T21:43:20.857Z,35.80
2024-01-17T21:45:49.085Z,24.10
2024-01-17T21:48:17.783Z,46.00
2024-01-17T21:53:14.041Z,21.70
2024-01-17T21:55:43.283Z,17.10
2024-01-17T21:58:12.368Z,21.90
2024-01-17T22:00:40.661Z,19.40
2024-01-17T22:03:11.767Z,17.90
2024-01-17T22:05:40.333Z,14.50
2024-01-17T22:08:08.711Z,20.40
2024-01-17T22:10:36.824Z,27.70
2024-01-17T22:13:05.966Z,19.90
2024-01-17T22:15:34.325Z,18.00
2024-01-17T22:18:03.284Z,11.70
2024-01-17T22:20:31.812Z,15.10
2024-01-17T22:22:59.994Z,16.60
2024-01-17T22:25:28.434Z,33.10
2024-01-17T22:27:57.375Z,26.60
2024-01-17T22:30:25.918Z,14.70
2024-01-17T22:32:54.161Z,29.30
2024-01-17T22:35:22.707Z,22.00
2024-01-17T22:37:51.896Z,23.60
2024-01-17T22:40:20.222Z,24.70
2024-01-17T22:42:48.497Z,30.50
2024-01-17T22:45:16.788Z,25.30
2024-01-17T22:47:45.295Z,15.20
2024-01-17T22:50:16.194Z,21.50
2024-01-17T22:52:45.291Z,16.80
2024-01-17T22:55:13.641Z,14.80
2024-01-17T22:57:45.398Z,16.00
2024-01-17T23:00:23.059Z,16.80
2024-01-17T23:02:51.987Z,26.00
2024-01-17T23:05:20.490Z,39.20
2024-01-17T23:07:56.909Z,38.30
2024-01-17T23:10:30.440Z,28.40
2024-01-17T23:12:58.648Z,30.20
2024-01-17T23:15:27.132Z,27.50
2024-01-17T23:20:24.288Z,28.20
2024-01-17T23:22:52.633Z,34.00
2024-01-17T23:25:20.931Z,25.90
2024-01-17T23:27:49.012Z,33.10
2024-01-17T23:30:17.443Z,44.40
2024-01-17T23:32:45.683Z,40.30
2024-01-17T23:35:14.144Z,36.20
2024-01-17T23:37:42.624Z,41.30
2024-01-17T23:40:12.962Z,38.90
2024-01-17T23:42:41.429Z,40.80
2024-01-17T23:45:10.370Z,42.00
2024-01-17T23:50:09.770Z,41.10
2024-01-17T23:52:38.548Z,44.30
2024-01-17T23:55:07.460Z,42.10
2024-01-17T23:57:36.015Z,43.20
